createdAt,value
2022-08-31T00:02:18.531Z,57.30
2022-08-31T00:04:48.501Z,57.10
2022-08-31T00:07:18.471Z,57.31
2022-08-31T00:09:48.405Z,57.34
2022-08-31T00:12:18.577Z,57.48
2022-08-31T00:14:50.180Z,57.33
2022-08-31T00:17:20.374Z,57.81
2022-08-31T00:19:50.271Z,57.70
2022-08-31T00:22:20.203Z,57.59
2022-08-31T00:24:50.094Z,57.47
2022-08-31T00:27:21.962Z,57.79
2022-08-31T00:29:53.172Z,57.82
2022-08-31T00:32:25.398Z,57.57
2022-08-31T00:34:59.173Z,57.61
2022-08-31T00:37:29.074Z,58.05
2022-08-31T00:39:59.005Z,57.88
2022-08-31T00:42:29.092Z,57.48
2022-08-31T00:45:00.346Z,57.40
2022-08-31T00:47:30.313Z,57.16
2022-08-31T00:50:02.273Z,57.36
2022-08-31T00:52:37.744Z,57.34
2022-08-31T00:55:14.037Z,56.97
2022-08-31T00:57:47.647Z,57.37
2022-08-31T01:00:24.662Z,57.21
2022-08-31T01:02:56.165Z,56.72
2022-08-31T01:05:26.770Z,56.71
2022-08-31T01:07:57.535Z,56.94
2022-08-31T01:10:31.821Z,57.31
2022-08-31T01:13:03.104Z,57.02
2022-08-31T01:15:35.814Z,57.17
2022-08-31T01:18:07.760Z,57.10
2022-08-31T01:20:49.091Z,57.02
2022-08-31T01:23:24.478Z,56.62
2022-08-31T01:25:57.049Z,56.32
2022-08-31T01:28:27.693Z,56.04
2022-08-31T01:31:05.538Z,56.16
2022-08-31T01:33:36.899Z,56.15
2022-08-31T01:36:08.092Z,56.36
2022-08-31T01:38:39.325Z,56.36
2022-08-31T01:41:09.502Z,56.38
2022-08-31T01:43:43.177Z,56.45
2022-08-31T01:46:14.758Z,56.55
2022-08-31T01:48:46.699Z,56.75
2022-08-31T01:51:19.072Z,56.95
2022-08-31T01:53:52.913Z,56.87
2022-08-31T01:56:25.264Z,57.54
2022-08-31T01:58:55.166Z,57.58
2022-08-31T02:01:34.307Z,57.58
2022-08-31T02:04:05.497Z,58.00
2022-08-31T02:06:36.187Z,57.81
2022-08-31T02:09:08.300Z,58.28
2022-08-31T02:11:38.484Z,58.65
2022-08-31T02:14:09.406Z,58.20
2022-08-31T02:16:39.948Z,58.18
2022-08-31T02:19:10.387Z,58.47
2022-08-31T02:21:40.567Z,58.05
2022-08-31T02:24:12.587Z,58.38
2022-08-31T02:26:42.917Z,58.16
2022-08-31T02:29:12.998Z,58.11
2022-08-31T02:31:42.990Z,58.15
2022-08-31T02:34:14.100Z,57.92
2022-08-31T02:36:45.287Z,58.00
2022-08-31T02:39:16.645Z,58.16
2022-08-31T02:41:47.334Z,58.27
2022-08-31T02:44:17.284Z,57.89
2022-08-31T02:46:47.179Z,57.95
2022-08-31T02:49:17.126Z,57.91
2022-08-31T02:51:47.282Z,57.59
2022-08-31T02:54:19.521Z,57.92
2022-08-31T02:56:49.352Z,57.40
2022-08-31T02:59:20.817Z,57.61
2022-08-31T03:01:54.288Z,57.77
2022-08-31T03:04:24.463Z,58.00
2022-08-31T03:06:54.460Z,57.76
2022-08-31T03:09:25.909Z,57.55
2022-08-31T03:11:55.804Z,57.44
2022-08-31T03:14:26.577Z,57.37
2022-08-31T03:16:57.792Z,57.43
2022-08-31T03:19:27.853Z,57.57
2022-08-31T03:21:57.750Z,57.55
2022-08-31T03:24:29.163Z,57.02
2022-08-31T03:26:59.224Z,57.16
2022-08-31T03:29:29.185Z,56.98
2022-08-31T03:31:59.118Z,56.90
2022-08-31T03:34:29.137Z,57.09
2022-08-31T03:37:00.712Z,57.32
2022-08-31T03:39:32.089Z,56.73
2022-08-31T03:42:02.089Z,57.08
2022-08-31T03:44:31.943Z,56.80
2022-08-31T03:47:01.953Z,56.82
2022-08-31T03:49:31.903Z,57.03
2022-08-31T03:52:02.311Z,57.34
2022-08-31T03:54:33.703Z,57.00
2022-08-31T03:57:05.383Z,57.12
2022-08-31T03:59:35.371Z,57.58
2022-08-31T04:02:05.528Z,57.38
2022-08-31T04:04:35.466Z,57.11
2022-08-31T04:07:05.411Z,57.29
2022-08-31T04:09:36.731Z,57.47
2022-08-31T04:12:06.699Z,57.46
2022-08-31T04:14:36.617Z,57.30
2022-08-31T04:17:06.763Z,57.38
2022-08-31T04:19:36.703Z,57.38
2022-08-31T04:22:06.615Z,57.15
2022-08-31T04:24:37.952Z,57.01
2022-08-31T04:27:08.600Z,57.27
2022-08-31T04:29:39.598Z,57.38
2022-08-31T04:32:10.002Z,57.53
2022-08-31T04:34:56.084Z,57.21
2022-08-31T04:37:26.696Z,57.84
2022-08-31T04:39:59.124Z,57.76
2022-08-31T04:42:30.191Z,57.87
2022-08-31T04:45:00.224Z,58.25
2022-08-31T04:47:30.515Z,58.20
2022-08-31T04:50:00.838Z,58.75
2022-08-31T04:52:30.849Z,59.32
2022-08-31T04:55:02.965Z,59.50
2022-08-31T04:57:35.513Z,59.83
2022-08-31T05:00:06.958Z,60.10
2022-08-31T05:02:37.482Z,60.38
2022-08-31T05:05:08.414Z,60.97
2022-08-31T05:07:39.257Z,60.70
2022-08-31T05:10:11.631Z,61.16
2022-08-31T05:12:41.478Z,61.01
2022-08-31T05:15:11.959Z,60.50
2022-08-31T05:17:41.906Z,59.99
2022-08-31T05:20:12.019Z,59.77
2022-08-31T05:22:41.893Z,59.90
2022-08-31T05:25:13.072Z,59.46
2022-08-31T05:27:43.303Z,59.07
2022-08-31T05:30:14.311Z,59.18
2022-08-31T05:32:45.767Z,59.26
2022-08-31T05:35:16.332Z,59.35
2022-08-31T05:37:46.473Z,59.19
2022-08-31T05:40:19.422Z,59.13
2022-08-31T05:42:49.827Z,58.61
2022-08-31T05:45:19.804Z,58.41
2022-08-31T05:47:49.612Z,58.26
2022-08-31T05:50:19.741Z,58.06
2022-08-31T05:52:49.929Z,57.73
2022-08-31T05:55:21.302Z,57.52
2022-08-31T05:57:52.727Z,57.50
2022-08-31T06:00:23.287Z,56.59
2022-08-31T06:02:54.034Z,56.62
2022-08-31T06:05:24.150Z,56.12
2022-08-31T06:07:55.235Z,55.92
2022-08-31T06:10:26.844Z,55.76
2022-08-31T06:12:57.774Z,55.19
2022-08-31T06:15:27.689Z,55.11
2022-08-31T06:17:57.858Z,54.61
2022-08-31T06:20:30.286Z,54.15
2022-08-31T06:23:03.124Z,53.91
2022-08-31T06:25:36.697Z,53.43
2022-08-31T06:28:07.413Z,53.34
2022-08-31T06:30:54.336Z,52.83
2022-08-31T06:33:24.988Z,52.81
2022-08-31T06:35:54.830Z,52.12
2022-08-31T06:38:26.529Z,51.94
2022-08-31T06:41:00.605Z,51.88
2022-08-31T06:43:30.525Z,51.12
2022-08-31T06:46:00.517Z,50.73
2022-08-31T06:48:30.549Z,50.27
2022-08-31T06:51:02.886Z,49.83
2022-08-31T06:53:33.038Z,49.73
2022-08-31T06:56:07.101Z,49.74
2022-08-31T06:58:53.900Z,49.83
2022-08-31T07:01:35.527Z,49.73
2022-08-31T07:04:08.313Z,48.71
2022-08-31T07:06:41.004Z,48.03
2022-08-31T07:09:13.273Z,48.31
2022-08-31T07:11:46.435Z,48.33
2022-08-31T07:14:18.385Z,48.40
2022-08-31T07:16:48.314Z,48.24
2022-08-31T07:19:18.978Z,48.25
2022-08-31T07:21:51.191Z,48.51
2022-08-31T07:24:24.292Z,48.63
2022-08-31T07:26:59.024Z,48.78
2022-08-31T07:29:32.043Z,48.22
2022-08-31T07:32:02.815Z,47.98
2022-08-31T07:34:34.011Z,47.98
2022-08-31T07:37:22.639Z,47.60
2022-08-31T07:40:10.566Z,48.40
2022-08-31T07:42:44.572Z,48.22
2022-08-31T07:45:22.516Z,47.48
2022-08-31T07:47:55.268Z,47.85
2022-08-31T07:50:27.398Z,48.05
2022-08-31T07:53:00.397Z,48.03
2022-08-31T07:55:30.568Z,48.33
2022-08-31T07:58:03.517Z,47.79
2022-08-31T08:00:36.135Z,47.63
2022-08-31T08:03:08.356Z,48.00
2022-08-31T08:05:38.786Z,48.11
2022-08-31T08:08:13.908Z,48.00
2022-08-31T08:10:52.152Z,47.40
2022-08-31T08:13:24.457Z,47.59
2022-08-31T08:15:54.662Z,47.66
2022-08-31T08:18:25.317Z,47.65
2022-08-31T08:20:55.526Z,47.25
2022-08-31T08:23:28.279Z,46.43
2022-08-31T08:26:01.078Z,46.64
2022-08-31T08:28:39.767Z,45.80
2022-08-31T08:31:15.352Z,46.99
2022-08-31T08:33:46.504Z,46.38
2022-08-31T08:36:18.377Z,46.35
2022-08-31T08:38:51.253Z,46.46
2022-08-31T08:41:24.761Z,46.28
2022-08-31T08:43:57.348Z,46.27
2022-08-31T08:46:35.329Z,46.77
2022-08-31T08:49:16.291Z,46.28
2022-08-31T08:51:48.118Z,46.09
2022-08-31T08:54:27.412Z,45.05
2022-08-31T08:56:58.040Z,44.41
2022-08-31T08:59:29.739Z,44.23
2022-08-31T09:02:07.046Z,44.31
2022-08-31T09:05:00.207Z,42.75
2022-08-31T09:07:44.505Z,42.32
2022-08-31T09:10:26.759Z,42.79
2022-08-31T09:13:09.879Z,42.25
2022-08-31T09:15:53.972Z,42.41
2022-08-31T09:18:33.267Z,41.42
2022-08-31T09:21:05.874Z,41.49
2022-08-31T09:23:44.301Z,41.79
2022-08-31T09:26:17.674Z,41.67
2022-08-31T09:28:52.958Z,41.60
2022-08-31T09:31:46.634Z,40.96
2022-08-31T09:34:29.646Z,40.80
2022-08-31T09:37:16.575Z,40.41
2022-08-31T09:39:49.822Z,40.74
2022-08-31T09:42:31.050Z,41.91
2022-08-31T09:45:04.173Z,41.27
2022-08-31T09:47:52.198Z,40.89
2022-08-31T09:50:29.355Z,39.99
2022-08-31T09:53:41.253Z,41.21
2022-08-31T09:56:15.798Z,41.71
2022-08-31T09:58:49.240Z,40.22
2022-08-31T10:01:34.100Z,38.77
2022-08-31T10:04:18.328Z,39.55
2022-08-31T10:06:55.345Z,40.67
2022-08-31T10:09:37.307Z,37.94
2022-08-31T10:12:12.622Z,39.41
2022-08-31T10:14:50.819Z,39.27
2022-08-31T10:17:32.007Z,37.80
2022-08-31T10:20:08.986Z,37.56
2022-08-31T10:22:42.520Z,39.24
2022-08-31T10:25:21.971Z,38.38
2022-08-31T10:27:58.695Z,38.26
2022-08-31T10:30:39.281Z,37.16
2022-08-31T10:33:17.968Z,37.62
2022-08-31T10:35:55.932Z,37.58
2022-08-31T10:38:31.849Z,37.99
2022-08-31T10:41:11.484Z,38.31
2022-08-31T10:43:49.134Z,37.59
2022-08-31T10:46:19.259Z,38.33
2022-08-31T10:48:54.428Z,37.68
2022-08-31T10:51:34.077Z,37.26
2022-08-31T10:54:24.710Z,36.49
2022-08-31T10:57:01.335Z,35.99
2022-08-31T10:59:37.225Z,36.87
2022-08-31T11:02:33.576Z,37.31
2022-08-31T11:05:26.165Z,36.16
2022-08-31T11:08:06.688Z,36.23
2022-08-31T11:10:48.483Z,37.19
2022-08-31T11:13:39.680Z,36.97
2022-08-31T11:16:23.446Z,36.67
2022-08-31T11:19:16.863Z,35.56
2022-08-31T11:22:05.625Z,36.41
2022-08-31T11:25:08.805Z,37.92
2022-08-31T11:27:43.224Z,36.94
2022-08-31T11:30:24.398Z,36.83
2022-08-31T11:32:57.058Z,35.31
2022-08-31T11:36:05.375Z,35.39
2022-08-31T11:38:48.786Z,36.35
2022-08-31T11:41:39.249Z,34.66
2022-08-31T11:44:11.336Z,35.13
2022-08-31T11:46:53.169Z,35.19
2022-08-31T11:49:43.810Z,36.21
2022-08-31T11:52:29.698Z,35.48
2022-08-31T11:55:28.526Z,35.40
2022-08-31T11:58:23.133Z,34.38
2022-08-31T12:00:58.598Z,35.54
2022-08-31T12:03:50.759Z,35.89
2022-08-31T12:07:11.198Z,34.93
2022-08-31T12:10:04.647Z,34.88
2022-08-31T12:12:51.353Z,35.19
2022-08-31T12:15:33.163Z,35.29
2022-08-31T12:18:18.647Z,34.70
2022-08-31T12:21:15.495Z,34.36
2022-08-31T12:23:59.732Z,33.82
2022-08-31T12:27:00.436Z,34.39
2022-08-31T12:29:32.455Z,34.88
2022-08-31T12:32:32.709Z,35.22
2022-08-31T12:35:15.598Z,34.27
2022-08-31T12:37:46.505Z,33.49
2022-08-31T12:40:20.926Z,33.69
2022-08-31T12:42:58.004Z,33.03
2022-08-31T12:45:56.488Z,33.26
2022-08-31T12:49:02.904Z,35.11
2022-08-31T12:51:44.464Z,38.34
2022-08-31T12:54:30.924Z,40.36
2022-08-31T12:57:15.149Z,41.76
2022-08-31T13:00:02.098Z,42.87
2022-08-31T13:02:35.849Z,44.04
2022-08-31T13:05:15.295Z,44.27
2022-08-31T13:07:45.228Z,44.24
2022-08-31T13:10:17.500Z,43.34
2022-08-31T13:12:52.569Z,43.41
2022-08-31T13:15:25.511Z,43.82
2022-08-31T13:17:56.610Z,44.61
2022-08-31T13:20:35.554Z,44.84
2022-08-31T13:23:11.689Z,44.63
2022-08-31T13:25:42.418Z,44.95
2022-08-31T13:28:26.232Z,44.51
2022-08-31T13:31:03.132Z,44.25
2022-08-31T13:33:36.060Z,44.84
2022-08-31T13:36:11.111Z,43.93
2022-08-31T13:38:49.995Z,44.13
2022-08-31T13:41:28.396Z,44.73
2022-08-31T13:44:02.615Z,45.36
2022-08-31T13:46:44.446Z,46.32
2022-08-31T13:49:32.405Z,47.39
2022-08-31T13:52:05.537Z,47.78
2022-08-31T13:54:37.020Z,48.63
2022-08-31T13:57:19.669Z,49.27
2022-08-31T13:59:50.094Z,49.43
2022-08-31T14:02:37.068Z,50.31
2022-08-31T14:05:10.041Z,51.95
2022-08-31T14:08:09.574Z,53.08
2022-08-31T14:10:46.282Z,53.19
2022-08-31T14:13:20.914Z,51.92
2022-08-31T14:15:53.544Z,51.13
2022-08-31T14:18:28.564Z,49.38
2022-08-31T14:21:22.748Z,49.14
2022-08-31T14:24:01.581Z,47.75
2022-08-31T14:26:34.708Z,46.80
2022-08-31T14:29:10.673Z,46.96
2022-08-31T14:31:46.961Z,45.71
2022-08-31T14:34:30.370Z,45.76
2022-08-31T14:37:06.597Z,43.85
2022-08-31T14:39:41.840Z,44.16
2022-08-31T14:42:17.361Z,43.94
2022-08-31T14:44:56.850Z,43.62
2022-08-31T14:47:29.718Z,43.41
2022-08-31T14:50:05.953Z,42.85
2022-08-31T14:52:37.070Z,42.87
2022-08-31T14:55:11.302Z,43.10
2022-08-31T14:57:45.919Z,45.66
2022-08-31T15:00:23.359Z,46.60
2022-08-31T15:02:54.266Z,48.43
2022-08-31T15:05:26.300Z,49.54
2022-08-31T15:07:57.269Z,50.38
2022-08-31T15:10:28.903Z,51.41
2022-08-31T15:13:05.597Z,51.79
2022-08-31T15:15:37.982Z,52.19
2022-08-31T15:18:14.554Z,52.49
2022-08-31T15:20:44.657Z,52.27
2022-08-31T15:23:16.026Z,51.80
2022-08-31T15:25:47.383Z,51.69
2022-08-31T15:28:17.664Z,51.96
2022-08-31T15:30:48.484Z,52.26
2022-08-31T15:33:21.581Z,51.94
2022-08-31T15:35:52.036Z,51.80
2022-08-31T15:38:24.107Z,51.79
2022-08-31T15:40:55.474Z,52.38
2022-08-31T15:43:25.488Z,52.56
2022-08-31T15:45:55.598Z,52.13
2022-08-31T15:48:42.906Z,52.47
2022-08-31T15:51:20.631Z,52.27
2022-08-31T15:54:18.404Z,52.39
2022-08-31T15:56:44.127Z,52.48
2022-08-31T15:59:14.844Z,52.08
2022-08-31T16:01:44.811Z,52.05
2022-08-31T16:04:23.528Z,51.90
2022-08-31T16:06:55.567Z,51.89
2022-08-31T16:09:25.456Z,51.64
2022-08-31T16:11:56.918Z,51.97
2022-08-31T16:14:27.081Z,51.83
2022-08-31T16:16:59.849Z,52.05
2022-08-31T16:19:35.626Z,52.27
2022-08-31T16:22:08.074Z,52.36
2022-08-31T16:24:38.628Z,52.62
2022-08-31T16:27:12.588Z,52.88
2022-08-31T16:29:47.617Z,53.17
2022-08-31T16:32:18.320Z,53.29
2022-08-31T16:34:49.149Z,53.67
2022-08-31T16:37:19.307Z,53.88
2022-08-31T16:39:49.256Z,53.99
2022-08-31T16:42:20.717Z,54.61
2022-08-31T16:44:50.724Z,55.14
2022-08-31T16:47:20.703Z,55.90
2022-08-31T16:49:50.094Z,57.41
2022-08-31T16:52:24.261Z,57.57
2022-08-31T16:54:56.538Z,58.01
2022-08-31T16:57:32.635Z,58.21
2022-08-31T17:00:04.768Z,58.20
2022-08-31T17:02:34.684Z,58.68
2022-08-31T17:05:04.804Z,58.61
2022-08-31T17:07:34.762Z,58.88
2022-08-31T17:10:07.088Z,58.69
2022-08-31T17:12:42.009Z,58.94
2022-08-31T17:15:17.212Z,58.65
2022-08-31T17:17:48.086Z,58.38
2022-08-31T17:20:19.336Z,58.58
2022-08-31T17:22:50.911Z,59.00
2022-08-31T17:25:22.093Z,58.62
2022-08-31T17:27:59.829Z,59.00
2022-08-31T17:30:32.316Z,59.10
2022-08-31T17:33:02.491Z,58.70
2022-08-31T17:35:32.370Z,58.65
2022-08-31T17:38:03.286Z,58.61
2022-08-31T17:40:33.438Z,58.72
2022-08-31T17:43:04.825Z,58.27
2022-08-31T17:45:36.979Z,58.75
2022-08-31T17:48:06.928Z,58.67
2022-08-31T17:50:37.049Z,59.08
2022-08-31T17:53:06.964Z,58.54
2022-08-31T17:55:36.937Z,58.59
2022-08-31T17:58:08.508Z,58.44
2022-08-31T18:00:38.503Z,58.10
2022-08-31T18:03:08.628Z,58.53
2022-08-31T18:05:41.921Z,58.53
2022-08-31T18:08:14.158Z,58.52
2022-08-31T18:10:52.121Z,58.46
2022-08-31T18:13:24.408Z,58.25
2022-08-31T18:15:55.258Z,58.78
2022-08-31T18:18:25.227Z,58.94
2022-08-31T18:20:55.210Z,59.18
2022-08-31T18:23:25.279Z,59.45
2022-08-31T18:25:55.158Z,59.69
2022-08-31T18:28:26.405Z,59.59
2022-08-31T18:30:56.374Z,59.75
2022-08-31T18:33:26.495Z,59.34
2022-08-31T18:35:56.547Z,59.79
2022-08-31T18:38:26.464Z,59.62
2022-08-31T18:41:13.719Z,59.73
2022-08-31T18:44:14.119Z,59.74
2022-08-31T18:46:45.579Z,59.84
2022-08-31T18:49:15.527Z,59.99
2022-08-31T18:51:47.299Z,59.98
2022-08-31T18:54:17.988Z,60.16
2022-08-31T18:56:49.211Z,59.89
2022-08-31T18:59:21.504Z,60.03
2022-08-31T19:01:52.476Z,60.28
2022-08-31T19:04:23.061Z,59.83
2022-08-31T19:06:53.265Z,60.01
2022-08-31T19:09:24.180Z,59.69
2022-08-31T19:12:02.027Z,59.41
2022-08-31T19:14:35.184Z,59.46
2022-08-31T19:17:07.993Z,59.35
2022-08-31T19:19:38.352Z,59.34
2022-08-31T19:22:08.644Z,59.76
2022-08-31T19:24:40.880Z,59.64
2022-08-31T19:27:11.903Z,59.83
2022-08-31T19:29:43.550Z,60.03
2022-08-31T19:32:14.934Z,60.33
2022-08-31T19:34:48.079Z,59.95
2022-08-31T19:37:18.013Z,60.19
2022-08-31T19:39:49.733Z,60.19
2022-08-31T19:42:20.101Z,60.29
2022-08-31T19:45:22.919Z,60.43
2022-08-31T19:47:46.844Z,60.43
2022-08-31T19:50:17.953Z,60.17
2022-08-31T19:52:48.721Z,59.81
2022-08-31T19:55:18.873Z,60.27
2022-08-31T19:57:48.728Z,59.80
2022-08-31T20:00:20.383Z,59.61
2022-08-31T20:02:50.437Z,59.81
2022-08-31T20:05:21.006Z,59.55
2022-08-31T20:07:50.999Z,59.34
2022-08-31T20:10:30.057Z,58.99
2022-08-31T20:13:02.041Z,59.11
2022-08-31T20:15:33.605Z,59.00
2022-08-31T20:18:03.469Z,58.62
2022-08-31T20:20:36.175Z,59.06
2022-08-31T20:23:06.863Z,59.50
2022-08-31T20:25:38.759Z,59.20
2022-08-31T20:28:10.172Z,59.41
2022-08-31T20:30:43.501Z,59.43
2022-08-31T20:33:14.414Z,59.38
2022-08-31T20:35:47.590Z,59.35
2022-08-31T20:38:19.068Z,59.67
2022-08-31T20:40:52.340Z,59.29
2022-08-31T20:43:23.661Z,59.64
2022-08-31T20:45:55.283Z,59.72
2022-08-31T20:48:42.336Z,59.88
2022-08-31T20:51:16.264Z,60.00
2022-08-31T20:53:46.583Z,60.24
2022-08-31T20:56:18.951Z,60.36
2022-08-31T20:58:48.913Z,60.88
2022-08-31T21:01:21.719Z,61.11
2022-08-31T21:03:53.354Z,61.35
2022-08-31T21:06:26.136Z,61.49
2022-08-31T21:08:56.846Z,61.91
2022-08-31T21:11:26.863Z,61.70
2022-08-31T21:14:02.178Z,61.74
2022-08-31T21:16:35.842Z,62.43
2022-08-31T21:19:11.829Z,62.94
2022-08-31T21:21:43.363Z,62.61
2022-08-31T21:24:15.924Z,63.29
2022-08-31T21:26:46.542Z,63.32
2022-08-31T21:29:18.973Z,63.38
2022-08-31T21:31:56.830Z,63.92
2022-08-31T21:34:30.024Z,63.86
2022-08-31T21:37:00.568Z,63.56
2022-08-31T21:39:32.464Z,63.87
2022-08-31T21:42:02.548Z,63.91
2022-08-31T21:44:32.737Z,64.41
2022-08-31T21:47:04.518Z,64.75
2022-08-31T21:49:36.845Z,64.85
2022-08-31T21:52:06.784Z,65.01
2022-08-31T21:54:36.801Z,65.01
2022-08-31T21:57:06.874Z,64.87
2022-08-31T21:59:37.607Z,64.91
2022-08-31T22:02:11.447Z,65.19
2022-08-31T22:04:44.700Z,65.13
2022-08-31T22:07:15.377Z,65.31
2022-08-31T22:09:46.798Z,65.53
2022-08-31T22:12:18.056Z,65.34
2022-08-31T22:14:48.620Z,65.84
2022-08-31T22:17:20.827Z,66.20
2022-08-31T22:19:50.734Z,65.75
2022-08-31T22:22:23.565Z,65.64
2022-08-31T22:24:54.474Z,65.41
2022-08-31T22:27:24.971Z,65.72
2022-08-31T22:29:55.345Z,65.39
2022-08-31T22:32:26.731Z,65.51
2022-08-31T22:34:57.160Z,65.19
2022-08-31T22:37:27.019Z,65.08
2022-08-31T22:39:57.161Z,65.33
2022-08-31T22:42:27.903Z,65.62
2022-08-31T22:44:57.715Z,65.54
2022-08-31T22:47:29.010Z,65.52
2022-08-31T22:49:58.847Z,65.65
2022-08-31T22:52:28.777Z,65.41
2022-08-31T22:54:58.635Z,65.42
2022-08-31T22:57:28.716Z,66.13
2022-08-31T22:59:59.313Z,65.93
2022-08-31T23:02:31.253Z,66.13
2022-08-31T23:05:03.447Z,66.18
2022-08-31T23:07:33.301Z,66.07
2022-08-31T23:10:03.380Z,65.90
2022-08-31T23:12:33.464Z,65.63
2022-08-31T23:15:04.081Z,65.82
2022-08-31T23:17:35.430Z,65.73
2022-08-31T23:20:07.323Z,65.90
2022-08-31T23:22:37.259Z,65.53
2022-08-31T23:25:10.673Z,65.41
2022-08-31T23:27:40.728Z,65.59
2022-08-31T23:30:13.657Z,65.73
2022-08-31T23:32:44.978Z,65.55
2022-08-31T23:35:18.768Z,65.96
2022-08-31T23:37:52.262Z,65.88
2022-08-31T23:40:22.269Z,65.55
2022-08-31T23:42:52.638Z,66.06
2022-08-31T23:45:22.486Z,65.76
2022-08-31T23:47:57.772Z,66.04
2022-08-31T23:50:28.097Z,66.13
2022-08-31T23:52:59.123Z,66.07
2022-08-31T23:55:30.282Z,65.82
2022-08-31T23:58:02.392Z,66.12
